createdAt,value
2018-09-04T00:00:05.860Z,59.17
2018-09-04T00:01:05.973Z,59.2
2018-09-04T00:02:05.884Z,59.2
2018-09-04T00:03:06.072Z,59.16
2018-09-04T00:04:06.017Z,59.14
2018-09-04T00:05:06.003Z,59.2
2018-09-04T00:06:06.022Z,59.18
2018-09-04T00:07:05.911Z,59.15
2018-09-04T00:08:06.167Z,59.18
2018-09-04T00:09:06.087Z,59.15
2018-09-04T00:10:05.956Z,59.18
2018-09-04T00:11:05.862Z,59.2
2018-09-04T00:12:06.047Z,59.17
2018-09-04T00:13:06.137Z,59.19
2018-09-04T00:14:06.035Z,59.19
2018-09-04T00:15:06.060Z,59.2
2018-09-04T00:16:05.908Z,59.21
2018-09-04T00:17:06.117Z,59.2
2018-09-04T00:18:06.019Z,59.22
2018-09-04T00:19:06.203Z,59.19
2018-09-04T00:20:05.963Z,59.18
2018-09-04T00:21:05.836Z,59.19
2018-09-04T00:22:06.114Z,59.18
2018-09-04T00:23:05.957Z,59.18
2018-09-04T00:24:06.166Z,59.19
2018-09-04T00:25:05.958Z,59.16
2018-09-04T00:26:06.007Z,59.16
2018-09-04T00:27:06.136Z,59.16
2018-09-04T00:28:06.010Z,59.18
2018-09-04T00:29:05.953Z,59.2
2018-09-04T00:30:06.252Z,59.18
2018-09-04T00:31:06.006Z,59.21
2018-09-04T00:32:06.431Z,59.17
2018-09-04T00:33:05.995Z,59.21
2018-09-04T00:34:06.094Z,59.2
2018-09-04T00:35:06.985Z,59.17
2018-09-04T00:36:06.039Z,59.2
2018-09-04T00:37:05.799Z,59.17
2018-09-04T00:38:05.875Z,59.17
2018-09-04T00:39:05.832Z,59.22
2018-09-04T00:40:06.065Z,59.21
2018-09-04T00:41:06.062Z,59.19
2018-09-04T00:42:06.111Z,59.17
2018-09-04T00:43:06.036Z,59.21
2018-09-04T00:44:06.023Z,59.21
2018-09-04T00:45:06.012Z,59.22
2018-09-04T00:46:06.207Z,59.19
2018-09-04T00:47:05.874Z,59.24
2018-09-04T00:48:06.286Z,59.19
2018-09-04T00:49:06.225Z,59.19
2018-09-04T00:50:05.808Z,59.22
2018-09-04T00:51:06.071Z,59.21
2018-09-04T00:52:05.977Z,59.21
2018-09-04T00:53:05.876Z,59.21
2018-09-04T00:54:05.833Z,59.19
2018-09-04T00:55:05.923Z,59.2
2018-09-04T00:56:06.001Z,59.22
2018-09-04T00:57:06.031Z,59.16
2018-09-04T00:58:06.062Z,59.2
2018-09-04T00:59:07.352Z,59.21
2018-09-04T01:00:05.993Z,59.19
2018-09-04T01:01:06.142Z,59.2
2018-09-04T01:02:05.861Z,59.21
2018-09-04T01:03:05.837Z,59.21
2018-09-04T01:04:05.790Z,59.18
2018-09-04T01:05:06.190Z,59.21
2018-09-04T01:06:05.734Z,59.22
2018-09-04T01:07:05.930Z,59.21
2018-09-04T01:08:05.817Z,59.21
2018-09-04T01:09:06.009Z,59.23
2018-09-04T01:10:05.888Z,59.24
2018-09-04T01:11:06.028Z,59.19
2018-09-04T01:12:06.015Z,59.25
2018-09-04T01:13:05.951Z,59.21
2018-09-04T01:14:06.045Z,59.19
2018-09-04T01:15:05.857Z,59.22
2018-09-04T01:16:06.028Z,59.21
2018-09-04T01:17:05.963Z,59.21
2018-09-04T01:18:05.986Z,59.19
2018-09-04T01:19:05.944Z,59.19
2018-09-04T01:20:05.847Z,59.2
2018-09-04T01:21:05.943Z,59.22
2018-09-04T01:22:06.171Z,59.19
2018-09-04T01:23:06.029Z,59.22
2018-09-04T01:24:06.101Z,59.21
2018-09-04T01:25:05.834Z,59.19
2018-09-04T01:26:05.906Z,59.22
2018-09-04T01:27:05.946Z,59.25
2018-09-04T01:28:05.946Z,59.21
2018-09-04T01:29:05.925Z,59.2
2018-09-04T01:30:05.899Z,59.22
2018-09-04T01:31:05.899Z,59.23
2018-09-04T01:32:05.889Z,59.21
2018-09-04T01:33:06.008Z,59.25
2018-09-04T01:34:06.027Z,59.25
2018-09-04T01:35:05.969Z,59.22
2018-09-04T01:36:06.055Z,59.21
2018-09-04T01:37:06.075Z,59.22
2018-09-04T01:38:06.011Z,59.2
2018-09-04T01:39:06.110Z,59.25
2018-09-04T01:40:05.967Z,59.23
2018-09-04T01:41:06.076Z,59.21
2018-09-04T01:42:05.827Z,59.27
2018-09-04T01:43:06.013Z,59.24
2018-09-04T01:44:05.994Z,59.22
2018-09-04T01:45:05.875Z,59.24
2018-09-04T01:46:05.964Z,59.25
2018-09-04T01:47:06.010Z,59.24
2018-09-04T01:48:05.900Z,59.22
2018-09-04T01:49:05.947Z,59.23
2018-09-04T01:50:05.941Z,59.22
2018-09-04T01:51:05.862Z,59.25
2018-09-04T01:52:06.065Z,59.25
2018-09-04T01:53:05.960Z,59.26
2018-09-04T01:54:05.904Z,59.25
2018-09-04T01:55:06.094Z,59.24
2018-09-04T01:56:06.078Z,59.24
2018-09-04T01:57:06.101Z,59.25
2018-09-04T01:58:05.988Z,59.22
2018-09-04T01:59:06.179Z,59.25
2018-09-04T02:00:05.958Z,59.22
2018-09-04T02:01:06.095Z,59.24
2018-09-04T02:02:05.895Z,59.24
2018-09-04T02:03:06.064Z,59.24
2018-09-04T02:04:06.084Z,59.28
2018-09-04T02:05:06.044Z,59.23
2018-09-04T02:06:05.812Z,59.22
2018-09-04T02:07:06.017Z,59.24
2018-09-04T02:08:05.801Z,59.21
2018-09-04T02:09:05.963Z,59.25
2018-09-04T02:10:05.912Z,59.25
2018-09-04T02:11:05.881Z,59.28
2018-09-04T02:12:05.919Z,59.25
2018-09-04T02:13:06.163Z,59.22
2018-09-04T02:14:06.008Z,59.24
2018-09-04T02:15:06.130Z,59.26
2018-09-04T02:16:06.017Z,59.22
2018-09-04T02:17:06.125Z,59.23
2018-09-04T02:18:06.112Z,59.25
2018-09-04T02:19:05.850Z,59.25
2018-09-04T02:20:05.807Z,59.27
2018-09-04T02:21:06.247Z,59.25
2018-09-04T02:22:06.174Z,59.21
2018-09-04T02:23:06.080Z,59.23
2018-09-04T02:24:05.908Z,59.23
2018-09-04T02:25:06.012Z,59.21
2018-09-04T02:26:05.743Z,59.24
2018-09-04T02:27:05.879Z,59.23
2018-09-04T02:28:06.094Z,59.29
2018-09-04T02:29:05.927Z,59.23
2018-09-04T02:30:06.235Z,59.25
2018-09-04T02:31:06.020Z,59.26
2018-09-04T02:32:05.997Z,59.22
2018-09-04T02:33:06.625Z,59.2
2018-09-04T02:34:05.936Z,59.22
2018-09-04T02:35:05.947Z,59.22
2018-09-04T02:36:06.055Z,59.26
2018-09-04T02:37:05.873Z,59.21
2018-09-04T02:38:06.056Z,59.22
2018-09-04T02:39:06.041Z,59.22
2018-09-04T02:40:06.010Z,59.19
2018-09-04T02:41:05.890Z,59.24
2018-09-04T02:42:05.781Z,59.22
2018-09-04T02:43:06.020Z,59.25
2018-09-04T02:44:05.996Z,59.27
2018-09-04T02:45:05.843Z,59.21
2018-09-04T02:46:05.941Z,59.24
2018-09-04T02:47:05.896Z,59.21
2018-09-04T02:48:06.010Z,59.2
2018-09-04T02:49:05.873Z,59.22
2018-09-04T02:50:05.899Z,59.26
2018-09-04T02:51:06.140Z,59.25
2018-09-04T02:52:06.068Z,59.22
2018-09-04T02:53:06.030Z,59.23
2018-09-04T02:54:05.938Z,59.2
2018-09-04T02:55:05.898Z,59.2
2018-09-04T02:56:05.914Z,59.19
2018-09-04T02:57:05.826Z,59.25
2018-09-04T02:58:06.212Z,59.22
2018-09-04T02:59:06.145Z,59.2
2018-09-04T03:00:06.064Z,59.22
2018-09-04T03:01:06.049Z,59.21
2018-09-04T03:02:05.844Z,59.19
2018-09-04T03:03:06.018Z,59.23
2018-09-04T03:04:06.112Z,59.24
2018-09-04T03:05:06.392Z,59.25
2018-09-04T03:06:05.858Z,59.22
2018-09-04T03:07:05.745Z,59.24
2018-09-04T03:08:06.009Z,59.23
2018-09-04T03:09:05.961Z,59.24
2018-09-04T03:10:05.933Z,59.2
2018-09-04T03:11:06.083Z,59.23
2018-09-04T03:12:05.904Z,59.24
2018-09-04T03:13:05.814Z,59.22
2018-09-04T03:14:06.100Z,59.23
2018-09-04T03:15:06.180Z,59.22
2018-09-04T03:16:05.976Z,59.23
2018-09-04T03:17:06.196Z,59.21
2018-09-04T03:18:06.034Z,59.23
2018-09-04T03:19:05.912Z,59.25
2018-09-04T03:20:05.850Z,59.25
2018-09-04T03:21:06.008Z,59.24
2018-09-04T03:22:06.098Z,59.22
2018-09-04T03:23:06.568Z,59.24
2018-09-04T03:24:06.148Z,59.28
2018-09-04T03:25:06.065Z,59.26
2018-09-04T03:26:06.006Z,59.26
2018-09-04T03:27:06.036Z,59.28
2018-09-04T03:28:06.014Z,59.22
2018-09-04T03:29:05.894Z,59.23
2018-09-04T03:30:06.028Z,59.22
2018-09-04T03:31:06.103Z,59.25
2018-09-04T03:32:05.999Z,59.24
2018-09-04T03:33:05.960Z,59.29
2018-09-04T03:34:05.845Z,59.23
2018-09-04T03:35:05.998Z,59.23
2018-09-04T03:36:06.016Z,59.22
2018-09-04T03:37:05.889Z,59.22
2018-09-04T03:38:06.109Z,59.25
2018-09-04T03:39:05.837Z,59.26
2018-09-04T03:40:06.004Z,59.26
2018-09-04T03:41:05.993Z,59.2
2018-09-04T03:42:05.828Z,59.23
2018-09-04T03:43:06.268Z,59.27
2018-09-04T03:44:05.927Z,59.26
2018-09-04T03:45:05.997Z,59.25
2018-09-04T03:46:06.024Z,59.25
2018-09-04T03:47:05.917Z,59.26
2018-09-04T03:48:05.997Z,59.27
2018-09-04T03:49:06.629Z,59.23
2018-09-04T03:50:06.104Z,59.24
2018-09-04T03:51:05.965Z,59.28
2018-09-04T03:52:06.402Z,59.27
2018-09-04T03:53:06.050Z,59.27
2018-09-04T03:54:05.963Z,59.31
2018-09-04T03:55:06.044Z,59.26
2018-09-04T03:56:05.934Z,59.27
2018-09-04T03:57:05.938Z,59.26
2018-09-04T03:58:05.865Z,59.24
2018-09-04T03:59:06.071Z,59.23
2018-09-04T04:00:06.055Z,59.24
2018-09-04T04:01:05.878Z,59.23
2018-09-04T04:02:05.936Z,59.22
2018-09-04T04:03:05.831Z,59.25
2018-09-04T04:04:05.935Z,59.24
2018-09-04T04:05:05.744Z,59.27
2018-09-04T04:06:05.904Z,59.28
2018-09-04T04:07:05.945Z,59.26
2018-09-04T04:08:05.701Z,59.24
2018-09-04T04:09:05.898Z,59.24
2018-09-04T04:10:05.870Z,59.24
2018-09-04T04:11:05.748Z,59.27
2018-09-04T04:12:07.179Z,59.22
2018-09-04T04:13:05.814Z,59.22
2018-09-04T04:14:05.914Z,59.26
2018-09-04T04:15:05.833Z,59.27
2018-09-04T04:16:05.935Z,59.23
2018-09-04T04:17:05.763Z,59.26
2018-09-04T04:18:05.850Z,59.22
2018-09-04T04:19:06.029Z,59.28
2018-09-04T04:20:05.810Z,59.25
2018-09-04T04:21:05.868Z,59.26
2018-09-04T04:22:05.828Z,59.25
2018-09-04T04:23:05.857Z,59.23
2018-09-04T04:24:06.112Z,59.28
2018-09-04T04:25:05.953Z,59.23
2018-09-04T04:26:05.823Z,59.23
2018-09-04T04:27:05.876Z,59.26
2018-09-04T04:28:06.041Z,59.24
2018-09-04T04:29:05.740Z,59.23
2018-09-04T04:30:05.914Z,59.21
2018-09-04T04:31:05.933Z,59.19
2018-09-04T04:32:06.078Z,59.2
2018-09-04T04:33:06.722Z,59.24
2018-09-04T04:34:05.862Z,59.24
2018-09-04T04:35:05.785Z,59.2
2018-09-04T04:36:05.982Z,59.23
2018-09-04T04:37:06.009Z,59.24
2018-09-04T04:38:05.849Z,59.25
2018-09-04T04:39:05.842Z,59.19
2018-09-04T04:40:06.940Z,59.23
2018-09-04T04:41:05.808Z,59.21
2018-09-04T04:42:05.947Z,59.23
2018-09-04T04:43:05.941Z,59.23
2018-09-04T04:44:06.087Z,59.21
2018-09-04T04:45:05.953Z,59.23
2018-09-04T04:46:05.787Z,59.25
2018-09-04T04:47:06.187Z,59.24
2018-09-04T04:48:06.235Z,59.21
2018-09-04T04:49:05.924Z,59.23
2018-09-04T04:50:05.955Z,59.25
2018-09-04T04:51:06.046Z,59.23
2018-09-04T04:52:05.945Z,59.23
2018-09-04T04:53:05.905Z,59.19
2018-09-04T04:54:05.996Z,59.22
2018-09-04T04:55:06.137Z,59.19
2018-09-04T04:56:06.139Z,59.21
2018-09-04T04:57:06.105Z,59.26
2018-09-04T04:58:05.808Z,59.26
2018-09-04T04:59:05.890Z,59.23
2018-09-04T05:00:05.928Z,59.21
2018-09-04T05:01:05.951Z,59.22
2018-09-04T05:02:05.800Z,59.25
2018-09-04T05:03:05.827Z,59.24
2018-09-04T05:04:06.136Z,59.27
2018-09-04T05:05:05.893Z,59.24
2018-09-04T05:06:05.844Z,59.21
2018-09-04T05:07:06.010Z,59.23
2018-09-04T05:08:06.030Z,59.24
2018-09-04T05:09:06.022Z,59.21
2018-09-04T05:10:05.736Z,59.26
2018-09-04T05:11:06.632Z,59.24
2018-09-04T05:12:06.140Z,59.23
2018-09-04T05:13:06.003Z,59.22
2018-09-04T05:14:05.796Z,59.19
2018-09-04T05:15:05.739Z,59.23
2018-09-04T05:16:05.869Z,59.24
2018-09-04T05:17:06.052Z,59.21
2018-09-04T05:18:05.792Z,59.28
2018-09-04T05:19:06.089Z,59.28
2018-09-04T05:20:05.987Z,59.38
2018-09-04T05:21:05.806Z,59.49
2018-09-04T05:22:05.857Z,59.39
2018-09-04T05:23:05.827Z,59.65
2018-09-04T05:24:05.903Z,59.75
2018-09-04T05:25:06.029Z,59.79
2018-09-04T05:26:05.928Z,59.9
2018-09-04T05:27:05.737Z,59.78
2018-09-04T05:28:05.923Z,59.86
2018-09-04T05:29:05.826Z,59.91
2018-09-04T05:30:05.918Z,59.94
2018-09-04T05:31:05.948Z,59.96
2018-09-04T05:32:05.820Z,60.03
2018-09-04T05:33:05.947Z,60.09
2018-09-04T05:34:05.797Z,59.83
2018-09-04T05:35:09.946Z,59.76
2018-09-04T05:36:05.821Z,59.7
2018-09-04T05:37:05.909Z,59.6
2018-09-04T05:38:06.460Z,59.65
2018-09-04T05:39:05.861Z,59.6
2018-09-04T05:40:06.205Z,59.52
2018-09-04T05:41:05.993Z,59.53
2018-09-04T05:42:05.868Z,59.49
2018-09-04T05:43:06.129Z,59.49
2018-09-04T05:44:06.147Z,59.53
2018-09-04T05:45:05.883Z,59.54
2018-09-04T05:46:05.881Z,59.53
2018-09-04T05:47:05.746Z,59.52
2018-09-04T05:48:05.960Z,59.5
2018-09-04T05:49:05.819Z,59.51
2018-09-04T05:50:05.988Z,59.52
2018-09-04T05:51:05.860Z,59.49
2018-09-04T05:52:05.854Z,59.53
2018-09-04T05:53:05.782Z,59.52
2018-09-04T05:54:06.159Z,59.53
2018-09-04T05:55:06.642Z,59.49
2018-09-04T05:56:05.799Z,59.51
2018-09-04T05:57:05.940Z,59.45
2018-09-04T05:58:06.066Z,59.42
2018-09-04T05:59:05.700Z,59.48
2018-09-04T06:00:05.859Z,59.49
2018-09-04T06:01:05.948Z,59.49
2018-09-04T06:02:05.950Z,59.45
2018-09-04T06:03:05.838Z,59.47
2018-09-04T06:04:05.723Z,59.45
2018-09-04T06:05:05.762Z,59.48
2018-09-04T06:06:05.737Z,59.46
2018-09-04T06:07:05.795Z,59.44
2018-09-04T06:08:05.871Z,59.44
2018-09-04T06:09:05.934Z,59.45
2018-09-04T06:10:05.958Z,59.44
2018-09-04T06:11:05.959Z,59.44
2018-09-04T06:12:05.991Z,59.43
2018-09-04T06:13:06.093Z,59.45
2018-09-04T06:14:06.031Z,59.43
2018-09-04T06:15:05.945Z,59.4
2018-09-04T06:16:06.012Z,59.45
2018-09-04T06:17:05.876Z,59.42
2018-09-04T06:18:06.216Z,59.46
2018-09-04T06:19:05.827Z,59.42
2018-09-04T06:20:06.863Z,59.4
2018-09-04T06:21:06.103Z,59.39
2018-09-04T06:22:06.018Z,59.38
2018-09-04T06:23:05.965Z,59.38
2018-09-04T06:24:05.871Z,59.42
2018-09-04T06:25:05.906Z,59.4
2018-09-04T06:26:05.908Z,59.39
2018-09-04T06:27:06.041Z,59.39
2018-09-04T06:28:05.867Z,59.4
2018-09-04T06:29:05.998Z,59.34
2018-09-04T06:30:05.927Z,59.39
2018-09-04T06:31:06.084Z,59.44
2018-09-04T06:32:05.924Z,59.38
2018-09-04T06:33:06.049Z,59.42
2018-09-04T06:34:06.516Z,59.4
2018-09-04T06:35:05.872Z,59.39
2018-09-04T06:36:06.038Z,59.4
2018-09-04T06:37:06.954Z,59.41
2018-09-04T06:38:05.987Z,59.42
2018-09-04T06:39:05.888Z,59.41
2018-09-04T06:40:05.872Z,59.38
2018-09-04T06:41:05.836Z,59.38
2018-09-04T06:42:05.896Z,59.39
2018-09-04T06:43:05.874Z,59.42
2018-09-04T06:44:05.935Z,59.4
2018-09-04T06:45:05.993Z,59.37
2018-09-04T06:46:05.880Z,59.32
2018-09-04T06:47:05.933Z,59.34
2018-09-04T06:48:05.812Z,59.32
2018-09-04T06:49:05.820Z,59.33
2018-09-04T06:50:05.687Z,59.32
2018-09-04T06:51:06.064Z,59.32
2018-09-04T06:52:05.899Z,59.32
2018-09-04T06:53:05.743Z,59.31
2018-09-04T06:54:05.806Z,59.32
2018-09-04T06:55:05.909Z,59.34
2018-09-04T06:56:05.789Z,59.3
2018-09-04T06:57:05.809Z,59.34
2018-09-04T06:58:05.803Z,59.35
2018-09-04T06:59:05.844Z,59.28
2018-09-04T07:00:05.957Z,59.33
2018-09-04T07:01:06.233Z,59.33
2018-09-04T07:02:06.107Z,59.31
2018-09-04T07:03:05.781Z,59.34
2018-09-04T07:04:05.878Z,59.33
2018-09-04T07:05:05.865Z,59.32
2018-09-04T07:06:07.223Z,59.33
2018-09-04T07:07:05.882Z,59.35
2018-09-04T07:08:06.007Z,59.32
2018-09-04T07:09:06.092Z,59.31
2018-09-04T07:10:05.898Z,59.28
2018-09-04T07:11:05.883Z,59.33
2018-09-04T07:12:05.970Z,59.28
2018-09-04T07:13:05.816Z,59.33
2018-09-04T07:14:05.852Z,59.31
2018-09-04T07:15:06.340Z,59.28
2018-09-04T07:16:05.857Z,59.3
2018-09-04T07:17:07.085Z,59.28
2018-09-04T07:18:06.072Z,59.31
2018-09-04T07:19:05.815Z,59.28
2018-09-04T07:20:05.759Z,59.31
2018-09-04T07:21:05.873Z,59.31
2018-09-04T07:22:05.829Z,59.28
2018-09-04T07:23:06.267Z,59.28
2018-09-04T07:24:06.060Z,59.32
2018-09-04T07:25:06.007Z,59.28
2018-09-04T07:26:05.995Z,59.25
2018-09-04T07:27:05.987Z,59.26
2018-09-04T07:28:05.966Z,59.28
2018-09-04T07:29:05.740Z,59.26
2018-09-04T07:30:05.996Z,59.27
2018-09-04T07:31:06.074Z,59.27
2018-09-04T07:32:05.853Z,59.28
2018-09-04T07:33:05.973Z,59.32
2018-09-04T07:34:05.986Z,59.31
2018-09-04T07:35:05.918Z,59.33
2018-09-04T07:36:05.842Z,59.31
2018-09-04T07:37:05.927Z,59.3
2018-09-04T07:38:05.806Z,59.3
2018-09-04T07:39:05.916Z,59.28
2018-09-04T07:40:05.772Z,59.33
2018-09-04T07:41:05.958Z,59.29
2018-09-04T07:42:06.003Z,59.34
2018-09-04T07:43:05.870Z,59.34
2018-09-04T07:44:05.959Z,59.33
2018-09-04T07:45:05.897Z,59.31
2018-09-04T07:46:05.808Z,59.27
2018-09-04T07:47:05.919Z,59.28
2018-09-04T07:48:05.767Z,59.28
2018-09-04T07:49:05.888Z,59.31
2018-09-04T07:50:05.901Z,59.31
2018-09-04T07:51:05.827Z,59.3
2018-09-04T07:52:05.878Z,59.31
2018-09-04T07:53:05.755Z,59.29
2018-09-04T07:54:05.948Z,59.28
2018-09-04T07:55:05.998Z,59.26
2018-09-04T07:56:05.713Z,59.31
2018-09-04T07:57:06.004Z,59.26
2018-09-04T07:58:05.790Z,59.28
2018-09-04T07:59:05.751Z,59.3
2018-09-04T08:00:05.816Z,59.3
2018-09-04T08:01:06.969Z,59.31
2018-09-04T08:02:05.803Z,59.29
2018-09-04T08:03:05.729Z,59.37
2018-09-04T08:04:05.759Z,59.34
2018-09-04T08:05:05.681Z,59.33
2018-09-04T08:06:05.834Z,59.33
2018-09-04T08:07:05.961Z,59.32
2018-09-04T08:08:05.806Z,59.34
2018-09-04T08:09:05.928Z,59.36
2018-09-04T08:10:06.543Z,59.37
2018-09-04T08:11:05.768Z,59.34
2018-09-04T08:12:05.826Z,59.34
2018-09-04T08:13:05.861Z,59.33
2018-09-04T08:14:05.790Z,59.34
2018-09-04T08:15:05.803Z,59.36
2018-09-04T08:16:05.689Z,59.3
2018-09-04T08:17:06.005Z,59.32
2018-09-04T08:18:05.735Z,59.32
2018-09-04T08:19:06.134Z,59.3
2018-09-04T08:20:06.005Z,59.29
2018-09-04T08:21:05.825Z,59.31
2018-09-04T08:22:05.713Z,59.31
2018-09-04T08:23:05.963Z,59.31
2018-09-04T08:24:05.984Z,59.28
2018-09-04T08:25:06.093Z,59.31
2018-09-04T08:26:06.710Z,59.3
2018-09-04T08:27:05.923Z,59.26
2018-09-04T08:28:05.879Z,59.27
2018-09-04T08:29:05.928Z,59.26
2018-09-04T08:30:05.913Z,59.26
2018-09-04T08:31:05.785Z,59.21
2018-09-04T08:32:05.846Z,59.28
2018-09-04T08:33:06.384Z,59.27
2018-09-04T08:34:05.789Z,59.27
2018-09-04T08:35:05.948Z,59.23
2018-09-04T08:36:05.807Z,59.24
2018-09-04T08:37:05.736Z,59.26
2018-09-04T08:38:05.793Z,59.21
2018-09-04T08:39:05.945Z,59.24
2018-09-04T08:40:06.824Z,59.25
2018-09-04T08:41:05.950Z,59.26
2018-09-04T08:42:05.766Z,59.27
2018-09-04T08:43:05.662Z,59.26
2018-09-04T08:44:06.009Z,59.25
2018-09-04T08:45:06.092Z,59.27
2018-09-04T08:46:05.847Z,59.27
2018-09-04T08:47:06.349Z,59.26
2018-09-04T08:48:06.041Z,59.26
2018-09-04T08:49:05.900Z,59.26
2018-09-04T08:50:05.968Z,59.28
2018-09-04T08:51:05.964Z,59.24
2018-09-04T08:52:05.792Z,59.26
2018-09-04T08:53:05.997Z,59.26
2018-09-04T08:54:05.833Z,59.25
2018-09-04T08:55:05.792Z,59.27
2018-09-04T08:56:05.722Z,59.25
2018-09-04T08:57:05.854Z,59.24
2018-09-04T08:58:05.805Z,59.24
2018-09-04T08:59:05.842Z,59.26
2018-09-04T09:00:06.044Z,59.28
2018-09-04T09:01:05.871Z,59.37
2018-09-04T09:02:05.915Z,59.47
2018-09-04T09:03:05.820Z,59.5
2018-09-04T09:04:05.860Z,59.66
2018-09-04T09:05:05.873Z,60.02
2018-09-04T09:06:05.784Z,60.14
2018-09-04T09:07:05.819Z,60.09
2018-09-04T09:08:05.945Z,60.39
2018-09-04T09:09:05.712Z,60.54
2018-09-04T09:10:06.881Z,60.5
2018-09-04T09:11:05.733Z,60.1
2018-09-04T09:12:05.865Z,60.02
2018-09-04T09:13:05.821Z,60.05
2018-09-04T09:14:05.806Z,60.14
2018-09-04T09:15:05.801Z,60.13
2018-09-04T09:16:06.089Z,60.02
2018-09-04T09:17:05.767Z,60.11
2018-09-04T09:18:06.073Z,60.02
2018-09-04T09:19:05.757Z,59.91
2018-09-04T09:20:06.005Z,59.87
2018-09-04T09:21:05.847Z,59.93
2018-09-04T09:22:05.906Z,59.88
2018-09-04T09:23:05.825Z,59.92
2018-09-04T09:24:05.955Z,59.91
2018-09-04T09:25:05.845Z,59.9
2018-09-04T09:26:05.892Z,59.86
2018-09-04T09:27:05.793Z,59.88
2018-09-04T09:28:05.757Z,59.86
2018-09-04T09:29:05.730Z,59.91
2018-09-04T09:30:05.865Z,59.85
2018-09-04T09:31:05.880Z,59.87
2018-09-04T09:32:05.709Z,59.92
2018-09-04T09:33:05.720Z,59.9
2018-09-04T09:34:05.790Z,59.89
2018-09-04T09:35:06.281Z,59.88
2018-09-04T09:36:05.919Z,59.91
2018-09-04T09:37:06.804Z,59.85
2018-09-04T09:38:05.788Z,59.85
2018-09-04T09:39:06.017Z,59.82
2018-09-04T09:40:05.647Z,59.79
2018-09-04T09:41:05.984Z,59.89
2018-09-04T09:42:05.765Z,59.85
2018-09-04T09:43:06.053Z,59.79
2018-09-04T09:44:06.121Z,59.81
2018-09-04T09:45:05.778Z,59.79
2018-09-04T09:46:05.796Z,59.75
2018-09-04T09:47:06.082Z,59.76
2018-09-04T09:48:05.856Z,59.74
2018-09-04T09:49:06.244Z,59.78
2018-09-04T09:50:05.848Z,59.81
2018-09-04T09:51:05.785Z,59.8
2018-09-04T09:52:05.847Z,59.74
2018-09-04T09:53:07.902Z,59.79
2018-09-04T09:54:06.459Z,59.73
2018-09-04T09:55:05.857Z,59.72
2018-09-04T09:56:06.475Z,59.73
2018-09-04T09:57:06.032Z,59.71
2018-09-04T09:58:05.775Z,59.76
2018-09-04T09:59:05.890Z,59.73
2018-09-04T10:00:06.336Z,59.74
2018-09-04T10:01:06.467Z,59.73
2018-09-04T10:02:05.868Z,59.71
2018-09-04T10:03:06.007Z,59.75
2018-09-04T10:04:07.101Z,59.74
2018-09-04T10:05:05.801Z,59.71
2018-09-04T10:06:05.715Z,59.67
2018-09-04T10:07:05.709Z,59.73
2018-09-04T10:08:07.189Z,59.73
2018-09-04T10:09:05.958Z,59.73
2018-09-04T10:10:06.511Z,59.68
2018-09-04T10:11:06.186Z,59.68
2018-09-04T10:12:06.185Z,59.66
2018-09-04T10:13:05.734Z,59.67
2018-09-04T10:14:05.656Z,59.69
2018-09-04T10:15:05.766Z,59.63
2018-09-04T10:16:05.860Z,59.67
2018-09-04T10:17:06.060Z,59.7
2018-09-04T10:18:05.962Z,59.69
2018-09-04T10:19:05.986Z,59.66
2018-09-04T10:20:05.987Z,59.61
2018-09-04T10:21:05.937Z,59.64
2018-09-04T10:22:05.859Z,59.62
2018-09-04T10:23:05.900Z,59.61
2018-09-04T10:24:05.929Z,59.63
2018-09-04T10:25:05.761Z,59.74
2018-09-04T10:26:05.722Z,59.7
2018-09-04T10:27:05.901Z,59.81
2018-09-04T10:28:05.681Z,59.87
2018-09-04T10:29:06.061Z,59.98
2018-09-04T10:30:05.817Z,60.21
2018-09-04T10:31:05.782Z,60.2
2018-09-04T10:32:05.909Z,60.27
2018-09-04T10:33:05.873Z,60.31
2018-09-04T10:34:05.748Z,60.27
2018-09-04T10:35:05.772Z,60.27
2018-09-04T10:36:06.288Z,60.39
2018-09-04T10:37:05.907Z,60.37
2018-09-04T10:38:05.817Z,60.45
2018-09-04T10:39:05.902Z,60.37
2018-09-04T10:40:05.901Z,60.32
2018-09-04T10:41:05.743Z,60.42
2018-09-04T10:42:06.158Z,60.42
2018-09-04T10:43:05.712Z,60.42
2018-09-04T10:44:05.964Z,60.45
2018-09-04T10:45:05.916Z,60.45
2018-09-04T10:46:05.723Z,60.6
2018-09-04T10:47:05.915Z,60.64
2018-09-04T10:48:05.839Z,60.68
2018-09-04T10:49:05.671Z,60.6
2018-09-04T10:50:05.681Z,60.58
2018-09-04T10:51:05.871Z,60.61
2018-09-04T10:52:05.822Z,60.6
2018-09-04T10:53:05.811Z,60.58
2018-09-04T10:54:05.724Z,60.54
2018-09-04T10:55:05.801Z,60.5
2018-09-04T10:56:06.072Z,60.59
2018-09-04T10:57:05.799Z,60.69
2018-09-04T10:58:06.031Z,60.64
2018-09-04T10:59:06.105Z,60.59
2018-09-04T11:00:05.846Z,60.46
2018-09-04T11:01:05.843Z,60.51
2018-09-04T11:02:05.763Z,60.49
2018-09-04T11:03:06.209Z,60.56
2018-09-04T11:04:06.168Z,60.55
2018-09-04T11:05:05.957Z,60.51
2018-09-04T11:06:05.860Z,60.53
2018-09-04T11:07:05.703Z,60.41
2018-09-04T11:08:05.944Z,60.46
2018-09-04T11:09:06.601Z,60.52
2018-09-04T11:10:05.735Z,60.52
2018-09-04T11:11:05.924Z,60.55
2018-09-04T11:12:05.707Z,60.55
2018-09-04T11:13:05.789Z,60.42
2018-09-04T11:14:06.022Z,60.39
2018-09-04T11:15:05.843Z,60.32
2018-09-04T11:16:06.092Z,60.35
2018-09-04T11:17:05.865Z,60.36
2018-09-04T11:18:05.734Z,60.35
2018-09-04T11:19:05.776Z,60.45
2018-09-04T11:20:06.128Z,60.57
2018-09-04T11:21:05.665Z,60.47
2018-09-04T11:22:05.839Z,60.54
2018-09-04T11:23:05.739Z,60.47
2018-09-04T11:24:05.992Z,60.42
2018-09-04T11:25:05.767Z,60.36
2018-09-04T11:26:05.852Z,60.52
2018-09-04T11:27:05.906Z,60.32
2018-09-04T11:28:06.037Z,60.41
2018-09-04T11:29:05.707Z,60.38
2018-09-04T11:30:05.754Z,60.24
2018-09-04T11:31:05.764Z,60.13
2018-09-04T11:32:05.994Z,60.04
2018-09-04T11:33:05.945Z,60.12
2018-09-04T11:34:06.052Z,60.06
2018-09-04T11:35:05.929Z,60.04
2018-09-04T11:36:05.851Z,60.04
2018-09-04T11:37:05.872Z,60.03
2018-09-04T11:38:05.912Z,60.04
2018-09-04T11:39:05.935Z,60.04
2018-09-04T11:40:05.744Z,60.02
2018-09-04T11:41:05.819Z,60.02
2018-09-04T11:42:05.879Z,59.99
2018-09-04T11:43:06.081Z,59.99
2018-09-04T11:44:05.817Z,60.04
2018-09-04T11:45:05.806Z,60.03
2018-09-04T11:46:06.079Z,60.02
2018-09-04T11:47:05.908Z,60.03
2018-09-04T11:48:06.198Z,59.98
2018-09-04T11:49:05.873Z,59.97
2018-09-04T11:50:05.880Z,60
2018-09-04T11:51:07.545Z,60.02
2018-09-04T11:52:05.829Z,60.01
2018-09-04T11:53:06.184Z,60.01
2018-09-04T11:54:05.759Z,59.96
2018-09-04T11:55:05.851Z,59.98
2018-09-04T11:56:05.934Z,59.99
2018-09-04T11:57:05.803Z,59.99
2018-09-04T11:58:05.641Z,59.94
2018-09-04T11:59:05.745Z,59.98
2018-09-04T12:00:05.768Z,59.96
2018-09-04T12:01:05.751Z,59.97
2018-09-04T12:02:06.073Z,59.95
2018-09-04T12:03:05.760Z,59.96
2018-09-04T12:04:05.761Z,59.92
2018-09-04T12:05:05.698Z,59.93
2018-09-04T12:06:05.764Z,59.92
2018-09-04T12:07:05.697Z,59.93
2018-09-04T12:08:05.878Z,59.89
2018-09-04T12:09:05.678Z,59.91
2018-09-04T12:10:05.826Z,60.18
2018-09-04T12:11:05.783Z,60.16
2018-09-04T12:12:05.856Z,60.26
2018-09-04T12:13:06.485Z,60.04
2018-09-04T12:14:05.874Z,60.04
2018-09-04T12:15:05.723Z,60.01
2018-09-04T12:16:05.808Z,60.04
2018-09-04T12:17:05.825Z,60.05
2018-09-04T12:18:05.757Z,60.01
2018-09-04T12:19:06.866Z,60.02
2018-09-04T12:20:05.827Z,60.02
2018-09-04T12:21:07.991Z,59.98
2018-09-04T12:22:05.779Z,60.02
2018-09-04T12:23:05.764Z,60.03
2018-09-04T12:24:05.807Z,60.02
2018-09-04T12:25:05.901Z,59.98
2018-09-04T12:26:06.047Z,59.97
2018-09-04T12:27:06.227Z,60.02
2018-09-04T12:28:05.828Z,59.96
2018-09-04T12:29:05.765Z,59.96
2018-09-04T12:30:06.029Z,59.98
2018-09-04T12:31:05.850Z,59.93
2018-09-04T12:32:05.812Z,59.96
2018-09-04T12:33:06.515Z,59.93
2018-09-04T12:34:06.559Z,59.92
2018-09-04T12:35:07.039Z,59.96
2018-09-04T12:36:05.798Z,59.92
2018-09-04T12:37:05.675Z,59.91
2018-09-04T12:38:05.865Z,59.93
2018-09-04T12:39:06.016Z,59.92
2018-09-04T12:40:05.797Z,59.93
2018-09-04T12:41:05.765Z,59.9
2018-09-04T12:42:06.059Z,59.88
2018-09-04T12:43:06.016Z,59.89
2018-09-04T12:44:05.834Z,59.9
2018-09-04T12:45:05.934Z,59.87
2018-09-04T12:46:05.772Z,59.85
2018-09-04T12:47:05.776Z,59.88
2018-09-04T12:48:06.596Z,59.88
2018-09-04T12:49:05.992Z,59.88
2018-09-04T12:50:05.836Z,59.87
2018-09-04T12:51:05.630Z,59.88
2018-09-04T12:52:06.176Z,59.88
2018-09-04T12:53:05.840Z,59.85
2018-09-04T12:54:06.035Z,59.85